createdAt,value
2018-10-17T00:00:24.990Z,93.13
2018-10-17T00:03:03.594Z,100.03
2018-10-17T00:05:42.551Z,121.17
2018-10-17T00:08:22.439Z,112.77
2018-10-17T00:11:01.899Z,118.20
2018-10-17T00:13:41.355Z,118.23
2018-10-17T00:16:20.913Z,120.33
2018-10-17T00:18:59.623Z,132.37
2018-10-17T00:21:38.773Z,130.03
2018-10-17T00:24:18.212Z,131.97
2018-10-17T00:26:56.888Z,131.33
2018-10-17T00:29:35.950Z,128.30
2018-10-17T00:32:15.449Z,151.73
2018-10-17T00:34:53.736Z,153.00
2018-10-17T00:37:32.733Z,132.80
2018-10-17T00:40:12.499Z,134.97
2018-10-17T00:42:51.406Z,141.57
2018-10-17T00:45:31.554Z,103.77
2018-10-17T00:48:10.229Z,182.40
2018-10-17T00:50:49.076Z,185.63
2018-10-17T00:53:27.952Z,184.43
2018-10-17T00:56:06.819Z,182.87
2018-10-17T00:58:50.961Z,174.40
2018-10-17T01:01:30.610Z,155.53
2018-10-17T01:04:09.311Z,177.17
2018-10-17T01:06:49.514Z,185.97
2018-10-17T01:09:29.192Z,185.53
2018-10-17T01:12:07.717Z,187.43
2018-10-17T01:14:46.101Z,184.20
2018-10-17T01:17:25.030Z,191.90
2018-10-17T01:20:04.531Z,165.13
2018-10-17T01:22:43.554Z,156.73
2018-10-17T01:25:22.592Z,159.77
2018-10-17T01:28:02.156Z,168.40
2018-10-17T01:30:40.952Z,168.43
2018-10-17T01:33:20.094Z,169.10
2018-10-17T01:35:59.056Z,187.80
2018-10-17T01:38:38.632Z,177.00
2018-10-17T01:41:17.856Z,187.43
2018-10-17T01:43:57.376Z,190.03
2018-10-17T01:46:36.842Z,174.90
2018-10-17T01:49:15.591Z,139.23
2018-10-17T01:51:54.314Z,105.20
2018-10-17T01:54:32.531Z,120.20
2018-10-17T01:57:11.899Z,117.10
2018-10-17T01:59:50.353Z,128.13
2018-10-17T02:02:29.096Z,135.80
2018-10-17T02:05:08.310Z,158.90
2018-10-17T02:07:47.834Z,164.73
2018-10-17T02:10:27.237Z,180.83
2018-10-17T02:13:07.734Z,181.27
2018-10-17T02:15:47.155Z,165.97
2018-10-17T02:18:27.070Z,175.40
2018-10-17T02:21:06.519Z,196.37
2018-10-17T02:23:45.631Z,185.83
2018-10-17T02:26:24.141Z,176.57
2018-10-17T02:29:03.187Z,171.13
2018-10-17T02:31:41.453Z,187.33
2018-10-17T02:34:21.596Z,201.30
2018-10-17T02:37:02.174Z,209.57
2018-10-17T02:39:41.784Z,229.77
2018-10-17T02:42:21.210Z,237.93
2018-10-17T02:44:59.730Z,253.93
2018-10-17T02:47:39.130Z,230.83
2018-10-17T02:50:18.195Z,239.90
2018-10-17T02:52:58.112Z,234.60
2018-10-17T02:55:37.915Z,253.73
2018-10-17T02:58:16.376Z,244.50
2018-10-17T03:00:54.928Z,252.47
2018-10-17T03:03:34.589Z,266.83
2018-10-17T03:06:13.236Z,263.67
2018-10-17T03:08:52.349Z,254.10
2018-10-17T03:11:33.094Z,258.93
2018-10-17T03:14:11.916Z,245.73
2018-10-17T03:16:50.800Z,262.87
2018-10-17T03:19:29.598Z,227.17
2018-10-17T03:22:07.838Z,194.90
2018-10-17T03:24:46.256Z,207.67
2018-10-17T03:27:27.008Z,206.30
2018-10-17T03:30:05.279Z,198.33
2018-10-17T03:32:46.737Z,189.60
2018-10-17T03:35:25.936Z,207.07
2018-10-17T03:38:04.632Z,216.93
2018-10-17T03:40:46.313Z,246.40
2018-10-17T03:43:23.914Z,260.90
2018-10-17T03:46:04.855Z,265.47
2018-10-17T03:48:43.357Z,275.67
2018-10-17T03:51:21.951Z,288.83
2018-10-17T03:54:01.538Z,304.60
2018-10-17T03:56:41.815Z,306.30
2018-10-17T03:59:21.004Z,302.03
2018-10-17T04:02:00.993Z,291.83
2018-10-17T04:04:41.052Z,305.23
2018-10-17T04:07:21.594Z,183.03
2018-10-17T04:10:01.677Z,264.40
2018-10-17T04:12:40.700Z,238.23
2018-10-17T04:15:21.137Z,249.23
2018-10-17T04:18:02.337Z,278.53
2018-10-17T04:20:43.608Z,287.17
2018-10-17T04:23:21.568Z,282.07
2018-10-17T04:26:01.334Z,268.70
2018-10-17T04:28:38.495Z,273.40
2018-10-17T04:31:16.376Z,278.33
2018-10-17T04:33:56.393Z,290.20
2018-10-17T04:36:35.971Z,293.27
2018-10-17T04:39:19.853Z,288.27
2018-10-17T04:42:06.196Z,302.93
2018-10-17T04:44:49.338Z,320.30
2018-10-17T04:47:29.127Z,324.70
2018-10-17T04:50:07.335Z,296.80
2018-10-17T04:52:52.166Z,274.87
2018-10-17T04:55:32.191Z,290.37
2018-10-17T04:58:13.257Z,287.53
2018-10-17T05:00:52.656Z,275.70
2018-10-17T05:03:31.430Z,213.23
2018-10-17T05:06:13.915Z,218.80
2018-10-17T05:08:56.115Z,223.50
2018-10-17T05:11:36.299Z,253.83
2018-10-17T05:14:22.737Z,247.70
2018-10-17T05:17:05.270Z,221.13
2018-10-17T05:19:44.978Z,279.10
2018-10-17T05:22:26.693Z,285.27
2018-10-17T05:25:06.450Z,283.57
2018-10-17T05:27:45.874Z,264.83
2018-10-17T05:30:27.073Z,255.43
2018-10-17T05:33:04.856Z,261.83
2018-10-17T05:35:45.776Z,280.73
2018-10-17T05:38:27.130Z,220.50
2018-10-17T05:41:08.330Z,237.80
2018-10-17T05:43:46.079Z,173.83
2018-10-17T05:46:26.593Z,104.73
2018-10-17T05:49:03.757Z,74.63
2018-10-17T05:51:51.515Z,92.70
2018-10-17T05:54:28.756Z,164.47
2018-10-17T05:57:06.856Z,176.97
2018-10-17T05:59:46.978Z,161.20
2018-10-17T06:02:28.722Z,197.20
2018-10-17T06:05:05.791Z,194.03
2018-10-17T06:07:43.496Z,175.47
2018-10-17T06:10:21.512Z,138.17
2018-10-17T06:13:00.289Z,147.77
2018-10-17T06:15:39.234Z,117.13
2018-10-17T06:18:21.296Z,92.67
2018-10-17T06:21:02.716Z,112.90
2018-10-17T06:23:40.590Z,93.63
2018-10-17T06:26:18.433Z,102.67
2018-10-17T06:28:57.612Z,102.27
2018-10-17T06:31:35.731Z,107.20
2018-10-17T06:34:17.651Z,87.70
2018-10-17T06:37:02.801Z,95.47
2018-10-17T06:39:41.422Z,91.13
2018-10-17T06:42:22.477Z,66.83
2018-10-17T06:45:01.413Z,70.13
2018-10-17T06:47:45.089Z,79.20
2018-10-17T06:50:27.701Z,80.60
2018-10-17T06:53:10.723Z,75.80
2018-10-17T06:55:51.733Z,75.63
2018-10-17T06:58:40.953Z,71.07
2018-10-17T07:01:21.299Z,68.93
2018-10-17T07:04:02.415Z,64.70
2018-10-17T07:06:41.596Z,60.77
2018-10-17T07:09:23.373Z,57.00
2018-10-17T07:12:01.139Z,54.30
2018-10-17T07:14:41.208Z,59.47
2018-10-17T07:17:21.457Z,58.87
2018-10-17T07:19:59.165Z,56.53
2018-10-17T07:22:40.054Z,51.57
2018-10-17T07:25:21.693Z,52.77
2018-10-17T07:28:01.996Z,50.60
2018-10-17T07:30:39.352Z,54.90
2018-10-17T07:33:18.150Z,61.70
2018-10-17T07:36:00.081Z,62.03
2018-10-17T07:38:37.951Z,59.43
2018-10-17T07:41:17.053Z,58.10
2018-10-17T07:43:58.318Z,51.83
2018-10-17T07:46:39.075Z,55.43
2018-10-17T07:49:19.291Z,59.70
2018-10-17T07:52:03.092Z,71.73
2018-10-17T07:54:44.517Z,80.07
2018-10-17T07:57:21.750Z,127.87
2018-10-17T08:00:00.707Z,123.17
2018-10-17T08:02:42.096Z,96.93
2018-10-17T08:05:19.573Z,68.07
2018-10-17T08:08:00.694Z,64.10
2018-10-17T08:10:37.613Z,61.00
2018-10-17T08:13:16.200Z,60.23
2018-10-17T08:15:53.729Z,49.97
2018-10-17T08:18:31.987Z,60.63
2018-10-17T08:21:11.523Z,54.90
2018-10-17T08:23:53.280Z,48.37
2018-10-17T08:26:32.974Z,52.50
2018-10-17T08:29:13.798Z,51.77
2018-10-17T08:31:54.668Z,61.10
2018-10-17T08:34:36.376Z,47.47
2018-10-17T08:37:14.730Z,57.47
2018-10-17T08:39:56.010Z,44.97
2018-10-17T08:42:34.581Z,43.50
2018-10-17T08:45:12.904Z,45.20
2018-10-17T08:47:51.254Z,128.50
2018-10-17T08:50:33.008Z,300.07
2018-10-17T08:53:14.278Z,641.07
2018-10-17T08:55:54.342Z,769.30
2018-10-17T08:58:31.012Z,674.43
2018-10-17T09:01:10.530Z,750.27
2018-10-17T09:03:47.793Z,562.93
2018-10-17T09:06:27.373Z,107.27
2018-10-17T09:09:09.535Z,50.20
2018-10-17T09:11:48.494Z,54.00
2018-10-17T09:14:34.554Z,250.97
2018-10-17T09:17:16.338Z,145.23
2018-10-17T09:19:53.456Z,243.67
2018-10-17T09:22:31.990Z,536.90
2018-10-17T09:25:16.500Z,262.57
2018-10-17T09:27:57.125Z,822.67
2018-10-17T09:30:36.432Z,864.10
2018-10-17T09:33:14.853Z,680.37
2018-10-17T09:35:53.863Z,675.43
2018-10-17T09:38:35.876Z,772.40
2018-10-17T09:41:18.816Z,764.17
2018-10-17T09:43:56.491Z,65.63
2018-10-17T09:46:34.753Z,918.57
2018-10-17T09:49:13.169Z,110.97
2018-10-17T09:51:54.336Z,140.00
2018-10-17T09:54:38.278Z,547.50
2018-10-17T09:57:20.825Z,494.87
2018-10-17T09:59:58.077Z,44.23
2018-10-17T10:02:39.553Z,42.80
2018-10-17T10:05:19.715Z,46.50
2018-10-17T10:08:02.838Z,78.40
2018-10-17T10:10:40.498Z,521.93
2018-10-17T10:13:20.751Z,632.17
2018-10-17T10:15:58.657Z,441.23
2018-10-17T10:18:45.932Z,435.77
2018-10-17T10:21:28.650Z,380.33
2018-10-17T10:24:07.029Z,293.83
2018-10-17T10:26:44.249Z,325.33
2018-10-17T10:29:26.372Z,108.17
2018-10-17T10:32:07.734Z,76.10
2018-10-17T10:34:48.686Z,64.47
2018-10-17T10:37:29.220Z,188.30
2018-10-17T10:40:17.534Z,49.77
2018-10-17T10:43:00.503Z,68.17
2018-10-17T10:45:42.209Z,92.53
2018-10-17T10:48:20.656Z,106.03
2018-10-17T10:50:58.116Z,116.83
2018-10-17T10:53:40.947Z,106.83
2018-10-17T10:56:18.770Z,79.83
2018-10-17T10:59:02.318Z,74.87
2018-10-17T11:01:41.235Z,53.77
2018-10-17T11:04:23.615Z,40.47
2018-10-17T11:07:00.835Z,57.27
2018-10-17T11:09:41.890Z,49.23
2018-10-17T11:12:22.171Z,78.37
2018-10-17T11:15:07.551Z,201.37
2018-10-17T11:17:46.499Z,159.60
2018-10-17T11:20:27.154Z,152.47
2018-10-17T11:23:05.451Z,136.40
2018-10-17T11:25:42.496Z,108.60
2018-10-17T11:28:23.413Z,95.30
2018-10-17T11:31:04.435Z,67.10
2018-10-17T11:33:47.654Z,91.33
2018-10-17T11:36:29.814Z,100.67
2018-10-17T11:39:08.928Z,100.23
2018-10-17T11:41:48.902Z,142.67
2018-10-17T11:44:27.136Z,128.30
2018-10-17T11:47:04.868Z,137.83
2018-10-17T11:49:43.671Z,114.87
2018-10-17T11:52:24.596Z,119.87
2018-10-17T11:55:02.011Z,111.30
2018-10-17T11:57:48.074Z,103.17
2018-10-17T12:00:27.938Z,102.90
2018-10-17T12:03:08.807Z,33.87
2018-10-17T12:05:49.601Z,40.53
2018-10-17T12:08:34.234Z,35.17
2018-10-17T12:11:18.096Z,33.83
2018-10-17T12:14:03.497Z,29.33
2018-10-17T12:16:44.640Z,28.50
2018-10-17T12:19:21.535Z,29.37
2018-10-17T12:22:02.581Z,28.87
2018-10-17T12:24:41.551Z,28.07
2018-10-17T12:27:20.120Z,28.77
2018-10-17T12:29:57.747Z,28.57
2018-10-17T12:32:39.270Z,30.63
2018-10-17T12:35:17.909Z,33.90
2018-10-17T12:37:55.174Z,34.90
2018-10-17T12:40:32.532Z,28.97
2018-10-17T12:43:09.775Z,27.27
2018-10-17T12:45:55.792Z,29.30
2018-10-17T12:48:33.131Z,27.90
2018-10-17T12:51:15.093Z,33.07
2018-10-17T12:53:53.074Z,49.80
2018-10-17T12:56:33.794Z,58.77
2018-10-17T12:59:11.461Z,60.10
2018-10-17T13:01:50.653Z,27.90
2018-10-17T13:04:28.022Z,28.83
2018-10-17T13:07:09.859Z,26.47
2018-10-17T13:09:51.120Z,26.10
2018-10-17T13:15:30.457Z,36.30
2018-10-17T13:18:11.277Z,67.87
2018-10-17T13:21:04.346Z,31.93
2018-10-17T13:23:45.058Z,66.20
2018-10-17T13:26:23.069Z,35.03
2018-10-17T13:28:59.893Z,41.30
2018-10-17T13:31:40.737Z,77.57
2018-10-17T13:34:17.707Z,61.97
2018-10-17T13:36:59.681Z,48.80
2018-10-17T13:39:40.816Z,30.27
2018-10-17T13:42:23.440Z,57.27
2018-10-17T13:45:06.023Z,37.50
2018-10-17T13:48:01.714Z,50.70
2018-10-17T13:50:43.193Z,58.40
2018-10-17T13:53:24.011Z,27.70
2018-10-17T13:56:05.051Z,38.43
2018-10-17T13:59:02.370Z,79.33
2018-10-17T14:01:40.861Z,35.00
2018-10-17T14:04:19.554Z,57.47
2018-10-17T14:06:59.578Z,68.07
2018-10-17T14:13:20.347Z,32.37
2018-10-17T14:15:58.258Z,31.93
2018-10-17T14:18:42.490Z,64.73
2018-10-17T14:21:22.575Z,48.50
2018-10-17T14:24:02.188Z,65.80
2018-10-17T14:26:45.638Z,53.83
2018-10-17T14:29:25.190Z,45.23
2018-10-17T14:32:17.451Z,51.03
2018-10-17T14:34:57.253Z,61.67
2018-10-17T14:37:37.981Z,57.77
2018-10-17T14:40:22.051Z,34.50
2018-10-17T14:43:00.394Z,45.60
2018-10-17T14:45:39.813Z,47.93
2018-10-17T14:48:27.051Z,39.50
2018-10-17T14:51:18.590Z,36.90
2018-10-17T14:54:03.690Z,26.23
2018-10-17T14:56:43.526Z,25.77
2018-10-17T16:26:01.021Z,160.93
2018-10-17T16:28:39.880Z,310.50
2018-10-17T16:31:17.248Z,451.50
2018-10-17T16:33:57.383Z,606.90
2018-10-17T16:36:37.157Z,683.63
2018-10-17T16:39:15.258Z,669.63
2018-10-17T16:41:52.969Z,708.10
2018-10-17T16:44:34.798Z,744.77
2018-10-17T16:47:15.739Z,727.50
2018-10-17T16:49:53.838Z,732.17
2018-10-17T16:52:32.336Z,773.53
2018-10-17T16:55:12.751Z,796.93
2018-10-17T16:57:51.578Z,795.93
2018-10-17T17:00:31.159Z,704.10
2018-10-17T17:03:11.842Z,580.17
2018-10-17T17:05:52.996Z,455.37
2018-10-17T17:08:33.719Z,394.30
2018-10-17T17:11:16.140Z,376.10
2018-10-17T17:13:55.243Z,376.50
2018-10-17T17:16:35.523Z,313.33
2018-10-17T17:19:12.477Z,222.53
2018-10-17T17:21:56.038Z,113.23
2018-10-17T17:24:35.101Z,79.90
2018-10-17T17:27:18.276Z,77.43
2018-10-17T17:29:57.583Z,77.70
2018-10-17T17:32:35.956Z,107.10
2018-10-17T17:35:16.002Z,111.53
2018-10-17T17:37:52.818Z,96.80
2018-10-17T17:40:39.802Z,64.73
2018-10-17T17:43:20.501Z,43.07
2018-10-17T17:45:59.847Z,36.23
2018-10-17T17:48:39.680Z,51.37
2018-10-17T17:51:18.824Z,54.17
2018-10-17T17:53:57.340Z,66.07
2018-10-17T17:56:37.182Z,63.50
2018-10-17T17:59:17.440Z,61.20
2018-10-17T18:01:57.799Z,63.80
2018-10-17T18:04:40.481Z,86.93
2018-10-17T18:07:20.117Z,134.47
2018-10-17T18:09:59.769Z,190.97
2018-10-17T18:12:36.419Z,272.03
2018-10-17T18:15:16.621Z,359.87
2018-10-17T18:17:55.758Z,427.93
2018-10-17T18:20:38.414Z,520.43
2018-10-17T18:23:16.099Z,638.87
2018-10-17T18:25:54.604Z,648.03
2018-10-17T18:28:33.563Z,724.63
2018-10-17T18:31:13.340Z,639.37
2018-10-17T18:33:57.495Z,579.20
2018-10-17T18:36:40.804Z,522.67
2018-10-17T18:39:18.139Z,535.33
2018-10-17T18:42:03.048Z,377.57
2018-10-17T18:44:42.323Z,281.63
2018-10-17T18:47:20.441Z,225.27
2018-10-17T18:49:58.904Z,98.73
2018-10-17T18:52:39.561Z,49.63
2018-10-17T18:55:20.265Z,48.40
2018-10-17T18:58:04.965Z,51.23
2018-10-17T19:00:45.601Z,48.37
2018-10-17T19:03:26.445Z,44.37
2018-10-17T19:06:10.381Z,50.83
2018-10-17T19:08:53.187Z,77.70
2018-10-17T19:11:30.281Z,124.10
2018-10-17T19:14:07.054Z,209.63
2018-10-17T19:16:44.740Z,289.80
2018-10-17T19:19:25.102Z,304.87
2018-10-17T19:22:01.436Z,314.37
2018-10-17T19:24:41.717Z,314.37
2018-10-17T19:27:25.002Z,328.40
2018-10-17T19:30:07.898Z,369.77
2018-10-17T19:32:48.503Z,404.37
2018-10-17T19:35:26.742Z,431.63
2018-10-17T19:38:07.664Z,425.97
2018-10-17T19:40:46.636Z,419.80
2018-10-17T19:43:24.945Z,427.93
2018-10-17T19:46:01.438Z,403.67
2018-10-17T19:48:38.775Z,341.90
2018-10-17T19:51:16.183Z,300.73
2018-10-17T19:53:55.021Z,309.23
2018-10-17T19:56:37.158Z,313.60
2018-10-17T19:59:21.880Z,305.43
2018-10-17T20:01:58.739Z,239.07
2018-10-17T20:04:35.278Z,144.97
2018-10-17T20:07:16.881Z,98.30
2018-10-17T20:09:56.238Z,86.80
2018-10-17T20:12:32.897Z,103.23
2018-10-17T20:15:11.652Z,123.70
2018-10-17T20:17:48.121Z,133.67
2018-10-17T20:20:24.737Z,138.10
2018-10-17T20:23:03.239Z,129.07
2018-10-17T20:25:42.435Z,131.90
2018-10-17T20:28:23.009Z,119.47
2018-10-17T20:31:02.958Z,107.20
2018-10-17T20:33:42.737Z,88.93
2018-10-17T20:36:22.978Z,66.73
2018-10-17T20:39:00.502Z,74.43
2018-10-17T20:41:39.421Z,66.90
2018-10-17T20:44:21.064Z,52.17
2018-10-17T20:46:58.662Z,47.37
2018-10-17T20:49:37.095Z,49.67
2018-10-17T20:52:17.105Z,54.03
2018-10-17T20:54:59.580Z,75.83
2018-10-17T20:57:37.962Z,95.53
2018-10-17T21:00:19.018Z,145.37
2018-10-17T21:02:57.220Z,196.90
2018-10-17T21:05:37.880Z,217.33
2018-10-17T21:08:17.405Z,226.13
2018-10-17T21:10:59.496Z,227.27
2018-10-17T21:13:39.496Z,209.60
2018-10-17T21:16:16.259Z,244.13
2018-10-17T21:18:59.743Z,256.00
2018-10-17T21:21:37.907Z,265.37
2018-10-17T21:24:14.239Z,250.90
2018-10-17T21:26:54.018Z,289.70
2018-10-17T21:29:33.000Z,273.17
2018-10-17T21:32:11.821Z,296.33
2018-10-17T21:34:50.657Z,296.80
2018-10-17T21:37:29.326Z,286.33
2018-10-17T21:40:09.443Z,259.43
2018-10-17T21:42:48.344Z,255.70
2018-10-17T21:45:26.499Z,258.70
2018-10-17T21:48:04.378Z,265.47
2018-10-17T21:50:42.864Z,313.97
2018-10-17T21:53:20.777Z,326.93
2018-10-17T21:56:00.285Z,316.43
2018-10-17T21:58:39.656Z,298.70
2018-10-17T22:01:20.060Z,290.13
2018-10-17T22:03:58.838Z,307.70
2018-10-17T22:06:37.677Z,297.40
2018-10-17T22:09:17.505Z,289.60
2018-10-17T22:11:59.383Z,257.27
2018-10-17T22:14:38.263Z,276.20
2018-10-17T22:17:20.684Z,268.77
2018-10-17T22:20:03.897Z,261.33
2018-10-17T22:22:47.587Z,265.83
2018-10-17T22:25:30.300Z,259.00
2018-10-17T22:28:12.675Z,240.50
2018-10-17T22:30:56.161Z,164.70
2018-10-17T22:33:40.800Z,164.70
2018-10-17T22:36:23.476Z,162.00
2018-10-17T22:39:06.221Z,165.80
2018-10-17T22:41:49.786Z,164.00
2018-10-17T22:44:32.199Z,153.47
2018-10-17T22:47:16.067Z,142.20
2018-10-17T22:49:59.252Z,152.90
2018-10-17T22:52:37.319Z,148.50
2018-10-17T22:55:15.370Z,137.63
2018-10-17T22:57:56.501Z,103.37
2018-10-17T23:00:34.842Z,79.77
2018-10-17T23:03:13.096Z,72.50
2018-10-17T23:05:55.801Z,68.33
2018-10-17T23:08:38.599Z,71.27
2018-10-17T23:11:18.718Z,69.03
2018-10-17T23:14:02.528Z,66.17
2018-10-17T23:16:41.344Z,60.93
2018-10-17T23:19:23.744Z,59.23
2018-10-17T23:22:07.904Z,57.93
2018-10-17T23:24:46.637Z,59.77
2018-10-17T23:27:31.198Z,61.80
2018-10-17T23:30:08.804Z,74.30
2018-10-17T23:32:48.509Z,63.20
2018-10-17T23:35:31.909Z,64.80
2018-10-17T23:38:14.052Z,66.00
2018-10-17T23:40:51.218Z,62.40
2018-10-17T23:43:29.561Z,69.20
2018-10-17T23:46:09.118Z,73.30
2018-10-17T23:48:48.322Z,72.10
2018-10-17T23:51:30.798Z,65.57
2018-10-17T23:54:09.452Z,65.90
2018-10-17T23:56:51.220Z,67.43
2018-10-17T23:59:28.012Z,69.10
